Aeroporto :
LOGIN :

Iscrizione | Disclaimer

   EN    FR    IT 

 










Sommario :    VFR   VFR Marginale   IFR   IFR Intensivo   IFR Molto Intensivo
Visibilità : 
Base nubi : 
>= 8 km
>= 3000ft
5 / 8 km
1000 / 3000 ft
1500m / 5 km
500 / 1000 ft
800 / 1500m
200 / 500 ft
< 800m
< 200 ft
Simboli :   Temporali  Nebbia  Neve Forte  Precipitazioni Forti  Vento > 20 kt
SIGMETs :   Varie  Temporali  Ghiacco  Turbolenza  Onda orograficha  Ceneri Vulcaniche







- Altitudine del aeroporto : 388 ft
- Codice IATA : QYR
- Carte del aeroporto


LFQB - Troyes Barberey

ULTIMO METAR :
  • 210930Z AUTO 33010KT 300V360 9999 BKN028 BKN034 17/10 Q1016

METARs OBSOLETI :
  • 210900Z AUTO 33007KT 290V010 9999 SCT021 BKN086 16/11 Q1016
  • 210830Z AUTO 31008KT 9999 FEW017 BKN082 15/11 Q1016
  • 210800Z AUTO 31007KT 270V340 8000 NSC 14/11 Q1016
  • 210730Z AUTO 31009KT 8000 NSC 14/11 Q1016
  • 210700Z AUTO 31009KT 8000 NSC 13/10 Q1016
  • 210630Z AUTO 30008KT 8000 NSC 12/10 Q1015

TAF N/A
Nessun NOTAM noto per questo aeroporto.



MetMap, La meteo Aeronautica in un colpo d'occhio ! - Copyright ORBIFLY Dicembre 2007 - Disclaimer

ORBIFLY MET'MAP TEAM :

Programmazione e sviluppo : Alexandra Zaïnal
Concezione e sviluppo : Baudouin d'Aumeries
Co-Programmazione e sviluppo : Marc-Olivier Méhu
Supporto tecnico e logistico : Manuel Goepfert
Aiuto per la traduzione : Arnaldo La Scala

Contatto : metmap@orbifly.com




FONTI E CREDITI :

   NOAA